Time;durP1;ratioP1;P1;durP2;ratioP2;P2;SDS_P1;SDS_P2;PMS_P1;PMS_P2;Temp;Humidity;BMP_temperature;BMP_pressure;BME280_temperature;BME280_humidity;BME280_pressure;Samples;Min_cycle;Max_cycle;Signal;HPM_P1;HPM_P2
2022/05/11 00:01:29;;;;;;;2.90;2.70;;;;;;;22.18;51.43;100956.69;5081489;28;20564;-69
2022/05/11 00:03:59;;;;;;;2.95;2.63;;;;;;;22.17;51.44;100949.75;5085204;28;20038;-65
2022/05/11 00:06:26;;;;;;;3.83;3.00;;;;;;;22.17;51.79;100953.22;5079869;28;20043;-70
2022/05/11 00:08:57;;;;;;;3.95;3.30;;;;;;;22.15;51.51;100952.63;5084896;28;20042;-69
2022/05/11 00:11:24;;;;;;;3.20;2.85;;;;;;;22.17;51.67;100957.72;5085538;28;20096;-68
2022/05/11 00:13:49;;;;;;;5.88;2.80;;;;;;;22.16;51.73;100954.25;5085070;28;20040;-63
2022/05/11 00:16:15;;;;;;;3.70;2.67;;;;;;;22.15;51.73;100951.81;5084347;28;20434;-66
2022/05/11 00:18:41;;;;;;;3.35;3.05;;;;;;;22.15;51.91;100957.94;5084025;28;20539;-69
2022/05/11 00:21:08;;;;;;;3.05;2.85;;;;;;;22.15;52.02;100952.63;5085743;28;20054;-63
2022/05/11 00:23:34;;;;;;;5.28;3.42;;;;;;;22.15;52.02;100957.13;5083858;28;20055;-70
2022/05/11 00:26:00;;;;;;;5.72;3.03;;;;;;;22.15;51.50;100963.25;5086077;28;20032;-64
2022/05/11 00:28:25;;;;;;;3.65;3.35;;;;;;;22.14;51.67;100958.94;5077344;28;20655;-69
2022/05/11 00:30:51;;;;;;;3.33;2.92;;;;;;;22.15;51.66;100954.47;5083964;28;20024;-66
2022/05/11 00:33:18;;;;;;;2.88;2.55;;;;;;;22.14;51.93;100950.19;5085181;28;20036;-66
2022/05/11 00:35:45;;;;;;;4.93;3.13;;;;;;;22.13;51.67;100957.31;5079093;28;20060;-68
2022/05/11 00:38:12;;;;;;;3.38;3.05;;;;;;;22.14;52.12;100956.31;5080873;28;20028;-65
2022/05/11 00:40:52;;;;;;;4.93;3.20;;;;;;;22.12;51.71;100950.38;5083158;28;20060;-68
2022/05/11 00:43:28;;;;;;;7.30;3.33;;;;;;;22.12;52.08;100946.91;5083806;28;20504;-68
2022/05/11 00:46:03;;;;;;;6.53;3.97;;;;;;;22.15;51.68;100946.50;5083634;28;20077;-67
2022/05/11 00:51:13;;;;;;;5.47;3.35;;;;;;;22.15;51.97;100944.66;5082106;28;20418;-67
2022/05/11 00:53:43;;;;;;;5.85;3.47;;;;;;;22.18;51.93;100946.91;5081935;28;20036;-65
2022/05/11 00:56:09;;;;;;;5.53;3.47;;;;;;;22.20;51.73;100937.91;5086085;28;20496;-65
2022/05/11 00:58:42;;;;;;;3.22;2.92;;;;;;;22.20;51.93;100940.56;5085192;28;20027;-62
2022/05/11 01:01:08;;;;;;;5.78;4.03;;;;;;;22.21;51.78;100944.84;5066802;28;20036;-69
2022/05/11 01:04:02;;;;;;;5.32;3.47;;;;;;;22.15;52.07;100946.50;5083626;28;20504;-69
2022/05/11 01:06:30;;;;;;;4.07;3.78;;;;;;;22.10;52.11;100944.47;5069254;28;20051;-64
2022/05/11 01:09:01;;;;;;;7.35;3.50;;;;;;;22.10;51.91;100938.34;5076354;28;20024;-64
2022/05/11 01:11:27;;;;;;;6.13;4.28;;;;;;;22.08;52.15;100935.91;5085020;28;20062;-62
2022/05/11 01:13:53;;;;;;;6.40;4.50;;;;;;;22.07;51.82;100936.09;5077391;28;20486;-65
2022/05/11 01:16:18;;;;;;;4.63;4.07;;;;;;;22.08;51.55;100935.09;5076747;28;20114;-65
2022/05/11 01:18:44;;;;;;;4.57;3.78;;;;;;;22.09;51.59;100932.22;5077146;28;20032;-66
2022/05/11 01:21:10;;;;;;;3.95;2.97;;;;;;;22.11;51.71;100934.66;5076282;28;20455;-61
2022/05/11 01:23:46;;;;;;;3.72;3.40;;;;;;;22.09;51.48;100937.53;5082470;28;20036;-65
2022/05/11 01:26:15;;;;;;;4.68;3.92;;;;;;;22.11;51.69;100937.31;5077447;28;20083;-66
2022/05/11 01:28:43;;;;;;;3.70;3.40;;;;;;;22.10;51.57;100941.81;5076567;28;20035;-65
2022/05/11 01:31:11;;;;;;;6.15;3.30;;;;;;;22.10;51.43;100936.50;5077188;28;20506;-66
2022/05/11 01:33:41;;;;;;;6.72;4.28;;;;;;;22.10;51.34;100939.16;5079026;28;20028;-67
2022/05/11 01:36:18;;;;;;;6.72;4.40;;;;;;;22.09;51.56;100942.03;5077302;28;20508;-64
2022/05/11 01:38:49;;;;;;;4.95;3.50;;;;;;;22.07;51.48;100934.28;5077064;28;20052;-67
2022/05/11 01:41:23;;;;;;;4.28;3.88;;;;;;;22.07;51.43;100933.47;5078421;28;20132;-66
2022/05/11 01:43:51;;;;;;;4.80;4.40;;;;;;;22.06;51.68;100939.78;5078136;28;20093;-69
2022/05/11 01:46:18;;;;;;;5.00;4.30;;;;;;;22.05;51.32;100941.63;5082024;28;20052;-65
2022/05/11 01:48:44;;;;;;;4.15;3.35;;;;;;;22.07;51.65;100939.56;5076879;28;20075;-65
2022/05/11 01:51:15;;;;;;;6.03;4.05;;;;;;;22.07;51.63;100944.88;5076087;28;21271;-67
2022/05/11 01:53:40;;;;;;;5.00;3.67;;;;;;;22.08;51.46;100943.88;5078866;28;20440;-67
2022/05/11 01:56:06;;;;;;;5.88;4.20;;;;;;;22.05;51.49;100949.59;5076972;28;20245;-65
2022/05/11 01:58:33;;;;;;;6.60;4.40;;;;;;;21.99;51.63;100950.38;5077044;28;20480;-67
2022/05/11 02:00:59;;;;;;;5.28;4.68;;;;;;;21.93;51.61;100947.75;5084665;28;20024;-68
2022/05/11 02:03:24;;;;;;;8.82;4.65;;;;;;;21.90;51.99;100940.19;5087241;28;20032;-68
2022/05/11 02:08:38;;;;;;;5.13;4.20;;;;;;;21.93;51.68;100943.25;5084977;28;20105;-69
2022/05/11 02:13:33;;;;;;;5.50;4.30;;;;;;;21.94;51.58;100938.75;4925885;22;20051;-61
2022/05/11 02:16:00;;;;;;;5.50;4.28;;;;;;;21.91;52.03;100937.34;5088957;28;20027;-62
2022/05/11 02:18:25;;;;;;;5.65;4.35;;;;;;;21.88;51.97;100940.41;5088967;28;20058;-62
2022/05/11 02:20:51;;;;;;;9.45;4.13;;;;;;;21.86;51.66;100947.75;5089368;28;20036;-62
2022/05/11 02:23:19;;;;;;;7.05;4.53;;;;;;;21.85;51.73;100938.97;5070992;28;20117;-62
2022/05/11 02:25:46;;;;;;;4.88;4.32;;;;;;;21.87;52.03;100933.47;5088206;28;20119;-61
2022/05/11 02:28:14;;;;;;;6.88;4.72;;;;;;;21.85;51.64;100935.50;5089115;28;20496;-60
2022/05/11 02:30:43;;;;;;;7.30;4.43;;;;;;;21.84;51.85;100934.69;5093254;28;20024;-59
2022/05/11 02:33:09;;;;;;;8.93;4.65;;;;;;;21.81;51.71;100929.78;5093243;28;20054;-59
2022/05/11 02:35:35;;;;;;;6.80;4.65;;;;;;;21.81;52.14;100928.97;5090509;28;20559;-58
2022/05/11 02:38:06;;;;;;;5.40;3.83;;;;;;;21.81;51.99;100934.28;5088831;28;20093;-62
2022/05/11 02:40:34;;;;;;;4.78;3.85;;;;;;;21.81;51.63;100931.63;5088755;28;20146;-60
2022/05/11 02:43:04;;;;;;;6.90;4.28;;;;;;;21.80;52.11;100938.78;5088555;28;20431;-62
2022/05/11 02:45:32;;;;;;;4.10;3.65;;;;;;;21.80;51.64;100935.31;5088573;28;20027;-61
2022/05/11 02:47:58;;;;;;;6.63;4.82;;;;;;;21.82;51.62;100931.44;5088583;28;20039;-59
2022/05/11 02:50:30;;;;;;;5.13;4.35;;;;;;;21.82;51.87;100934.06;5088553;28;20115;-61
2022/05/11 02:52:56;;;;;;;5.25;4.07;;;;;;;21.83;51.78;100934.91;5089003;28;20175;-60
2022/05/11 02:55:22;;;;;;;5.90;4.20;;;;;;;21.84;51.54;100936.53;5088218;28;20024;-60
2022/05/11 02:57:47;;;;;;;3.83;3.42;;;;;;;21.85;51.58;100930.19;5088573;28;20031;-62
2022/05/11 03:00:16;;;;;;;5.97;4.25;;;;;;;21.88;51.80;100935.09;5090161;28;20024;-59
2022/05/11 03:02:43;;;;;;;5.00;4.55;;;;;;;21.89;51.42;100926.13;5088372;28;20034;-61
2022/05/11 03:05:12;;;;;;;7.28;3.80;;;;;;;21.88;51.71;100929.78;5088286;28;20333;-61
2022/05/11 03:07:38;;;;;;;7.15;4.13;;;;;;;21.88;51.22;100928.97;5070458;28;20028;-60
2022/05/11 03:10:05;;;;;;;8.70;4.53;;;;;;;21.84;51.37;100931.22;5088325;28;20039;-62
2022/05/11 03:12:32;;;;;;;7.47;4.43;;;;;;;21.81;51.61;100935.09;5088081;28;20070;-61
2022/05/11 03:14:58;;;;;;;5.88;4.30;;;;;;;21.82;51.61;100935.91;5088030;28;20542;-57
2022/05/11 03:17:24;;;;;;;6.35;4.53;;;;;;;21.80;51.54;100935.31;5088284;28;20066;-59
2022/05/11 03:19:50;;;;;;;4.47;4.07;;;;;;;21.82;51.25;100934.06;5088190;28;20024;-62
2022/05/11 03:22:16;;;;;;;4.63;4.18;;;;;;;21.80;51.73;100933.47;5088308;28;20052;-60
2022/05/11 03:24:41;;;;;;;6.80;4.28;;;;;;;21.79;51.46;100934.50;5087987;28;20218;-59
2022/05/11 03:27:07;;;;;;;5.10;3.30;;;;;;;21.80;51.45;100940.59;5068173;28;20606;-60
2022/05/11 03:29:33;;;;;;;5.97;4.60;;;;;;;21.79;51.47;100942.44;5065254;28;20035;-61
2022/05/11 03:34:43;;;;;;;8.80;4.65;;;;;;;21.76;51.58;100936.72;5067004;28;20039;-59
2022/05/11 03:37:12;;;;;;;4.93;4.03;;;;;;;21.77;51.83;100941.03;5066345;28;20032;-58
2022/05/11 03:39:38;;;;;;;5.05;4.30;;;;;;;21.78;51.77;100945.31;5065981;28;21468;-60
2022/05/11 03:42:05;;;;;;;6.18;4.10;;;;;;;21.78;51.72;100946.13;5066402;28;20032;-61
2022/05/11 03:44:31;;;;;;;5.60;4.10;;;;;;;21.76;51.60;100942.84;5066620;28;20036;-61
2022/05/11 03:46:57;;;;;;;5.55;4.28;;;;;;;21.75;51.61;100941.22;5067472;28;20028;-59
2022/05/11 03:49:22;;;;;;;7.38;3.88;;;;;;;21.74;51.84;100944.91;5067184;28;20494;-59
2022/05/11 03:51:50;;;;;;;4.63;4.22;;;;;;;21.74;51.30;100946.75;5067230;28;20189;-60
2022/05/11 03:54:15;;;;;;;4.70;4.18;;;;;;;21.75;51.51;100945.72;5048100;28;20098;-59
2022/05/11 03:56:41;;;;;;;10.48;4.20;;;;;;;21.77;51.38;100948.97;5065747;28;20169;-59
2022/05/11 03:59:06;;;;;;;4.22;3.92;;;;;;;21.77;51.52;100949.78;5067320;28;20059;-62
2022/05/11 04:01:32;;;;;;;6.70;4.20;;;;;;;21.80;51.16;100943.25;5067224;28;20141;-61
2022/05/11 04:03:57;;;;;;;5.25;3.88;;;;;;;21.81;51.70;100950.19;5066023;28;20424;-59
2022/05/11 04:06:23;;;;;;;4.75;3.63;;;;;;;21.82;51.23;100947.34;5067015;28;20024;-62
2022/05/11 04:08:48;;;;;;;5.65;3.60;;;;;;;21.83;51.21;100948.16;5066805;28;20028;-61
2022/05/11 04:11:14;;;;;;;4.72;4.00;;;;;;;21.84;51.45;100947.13;5065072;28;20027;-61
2022/05/11 04:13:42;;;;;;;3.78;3.47;;;;;;;21.84;51.29;100945.28;5066587;28;20044;-62
2022/05/11 04:16:08;;;;;;;5.97;4.70;;;;;;;21.85;51.41;100943.47;5065912;28;20052;-60
2022/05/11 04:18:35;;;;;;;5.68;4.18;;;;;;;21.84;51.15;100939.19;5063152;28;20761;-59
2022/05/11 04:21:01;;;;;;;5.90;4.43;;;;;;;21.82;51.39;100942.03;5065770;28;20102;-63
2022/05/11 04:23:26;;;;;;;4.35;3.95;;;;;;;21.84;51.25;100940.00;5067685;28;20020;-59
2022/05/11 04:25:52;;;;;;;3.75;3.33;;;;;;;21.85;51.43;100944.28;5066162;28;20387;-59
2022/05/11 04:28:18;;;;;;;3.75;3.17;;;;;;;21.86;51.11;100950.41;5066186;28;20502;-54
2022/05/11 04:30:44;;;;;;;5.10;4.22;;;;;;;21.90;52.07;100954.28;5065805;28;20120;-55
2022/05/11 04:33:10;;;;;;;8.55;5.38;;;;;;;21.92;52.67;100946.09;5066685;28;20016;-57
2022/05/11 04:35:36;;;;;;;8.90;5.13;;;;;;;21.93;52.76;100948.56;5066751;28;20376;-57
2022/05/11 04:38:03;;;;;;;10.07;5.20;;;;;;;21.93;52.84;100953.84;5059928;28;20051;-54
2022/05/11 04:40:31;;;;;;;9.38;4.45;;;;;;;21.95;52.78;100951.81;5065479;28;20112;-55
2022/05/11 04:42:56;;;;;;;5.82;4.43;;;;;;;21.94;52.87;100952.84;5046613;28;20045;-53
2022/05/11 04:45:22;;;;;;;8.68;3.72;;;;;;;21.97;52.71;100960.38;5064137;28;20636;-53
2022/05/11 04:47:48;;;;;;;7.15;4.00;;;;;;;21.96;52.55;100961.41;5066080;28;20046;-50
2022/05/11 04:50:16;;;;;;;7.75;4.25;;;;;;;21.98;52.33;100969.97;5067621;28;20063;-52
2022/05/11 04:52:42;;;;;;;4.63;3.78;;;;;;;21.98;52.45;100969.97;5067587;28;20111;-54
2022/05/11 04:55:09;;;;;;;6.72;4.05;;;;;;;22.00;52.37;100981.19;5070403;28;20037;-52
2022/05/11 04:57:36;;;;;;;4.55;3.70;;;;;;;22.00;52.41;100975.06;5066266;28;20048;-52
2022/05/11 05:00:10;;;;;;;9.63;4.47;;;;;;;22.00;52.54;100978.53;5049176;28;20040;-49
2022/05/11 05:02:36;;;;;;;5.32;4.15;;;;;;;21.99;52.52;100974.25;5049964;28;20039;-48
2022/05/11 05:05:05;;;;;;;7.70;3.78;;;;;;;22.00;52.47;100981.19;5066578;28;20530;-48
2022/05/11 05:07:35;;;;;;;5.47;3.47;;;;;;;21.99;52.35;100987.53;5068121;28;20041;-48
2022/05/11 05:10:06;;;;;;;6.75;3.58;;;;;;;22.00;52.25;100975.06;5050287;28;20033;-48
2022/05/11 05:12:32;;;;;;;3.92;3.15;;;;;;;21.98;52.13;100983.22;5067821;28;20045;-48
2022/05/11 05:14:58;;;;;;;7.30;3.55;;;;;;;21.99;52.25;100984.88;5064300;28;20052;-48
2022/05/11 05:17:24;;;;;;;6.95;3.55;;;;;;;21.98;51.65;100983.22;5068085;28;20029;-48
2022/05/11 05:19:49;;;;;;;5.10;4.13;;;;;;;21.99;52.04;100978.75;5069396;28;20066;-50
2022/05/11 05:22:16;;;;;;;5.57;4.28;;;;;;;21.99;51.62;100979.56;5069023;28;20124;-48
2022/05/11 05:24:42;;;;;;;4.40;4.00;;;;;;;21.98;51.85;100985.88;5065750;28;20070;-49
2022/05/11 05:27:10;;;;;;;4.72;3.70;;;;;;;21.98;51.58;100983.22;5068211;28;20369;-49
2022/05/11 05:32:20;;;;;;;4.20;3.90;;;;;;;21.96;51.49;100979.97;5068734;28;20141;-47
2022/05/11 05:34:46;;;;;;;4.90;3.47;;;;;;;21.96;51.51;100985.28;5066537;28;20052;-46
2022/05/11 05:37:13;;;;;;;4.55;3.72;;;;;;;21.97;51.48;100991.41;5067846;28;20543;-47
2022/05/11 05:39:39;;;;;;;6.18;4.22;;;;;;;21.96;51.60;100989.78;5067124;28;20101;-47
2022/05/11 05:42:06;;;;;;;3.92;3.63;;;;;;;21.96;51.61;100998.53;5065794;28;20060;-48
2022/05/11 05:44:32;;;;;;;6.32;4.38;;;;;;;21.95;51.47;100994.25;5068835;28;20033;-46
2022/05/11 05:47:05;;;;;;;5.90;4.10;;;;;;;21.94;51.72;100997.94;5069043;28;20024;-48
2022/05/11 05:49:31;;;;;;;5.18;4.03;;;;;;;21.95;51.50;101001.41;5068883;28;20032;-46
2022/05/11 05:52:01;;;;;;;5.57;4.65;;;;;;;21.93;51.75;100996.31;5068979;28;20028;-48
2022/05/11 05:54:32;;;;;;;5.93;3.75;;;;;;;21.94;51.67;101002.41;5068283;28;20020;-48
2022/05/11 05:56:58;;;;;;;5.93;3.97;;;;;;;21.93;51.84;100998.13;5067271;28;20032;-49
2022/05/11 05:59:24;;;;;;;3.65;3.35;;;;;;;21.94;51.76;101005.06;5067178;28;20121;-47
2022/05/11 06:01:50;;;;;;;4.47;4.07;;;;;;;21.93;51.44;101003.44;5065977;28;20028;-49
2022/05/11 06:04:16;;;;;;;4.30;3.85;;;;;;;21.92;51.85;101002.63;5068136;28;20051;-52
2022/05/11 06:06:41;;;;;;;5.97;3.42;;;;;;;21.92;51.46;101007.94;5067584;28;20503;-49
2022/05/11 06:09:09;;;;;;;4.53;3.33;;;;;;;21.91;51.57;101008.94;5066919;28;20020;-47
2022/05/11 06:11:36;;;;;;;4.38;3.97;;;;;;;21.92;51.90;101015.06;5067609;28;20025;-50
2022/05/11 06:14:02;;;;;;;8.35;3.33;;;;;;;21.91;51.65;101010.78;5068045;28;20060;-46
2022/05/11 06:16:27;;;;;;;3.97;3.40;;;;;;;21.91;51.67;101014.25;5064923;28;20438;-57
2022/05/11 06:18:53;;;;;;;6.55;4.55;;;;;;;21.95;52.68;101012.84;5068978;28;20024;-55
2022/05/11 06:21:19;;;;;;;7.72;6.13;;;;;;;22.00;53.09;101013.03;5066693;28;20106;-50
2022/05/11 06:23:45;;;;;;;8.25;5.57;;;;;;;22.08;53.64;101017.34;5067513;28;20035;-50
2022/05/11 06:26:11;;;;;;;6.53;4.30;;;;;;;22.07;53.64;101019.19;5066001;28;20045;-50
2022/05/11 06:28:40;;;;;;;8.98;4.82;;;;;;;22.04;53.66;101016.13;5066483;28;20032;-51
2022/05/11 06:31:07;;;;;;;5.60;4.53;;;;;;;22.02;53.52;101018.97;5047628;28;20025;-54
2022/05/11 06:33:33;;;;;;;5.45;4.28;;;;;;;22.01;53.59;101014.69;5067920;28;20017;-58
2022/05/11 06:35:59;;;;;;;6.30;3.92;;;;;;;22.00;53.41;101020.16;5066917;28;20043;-58
2022/05/11 06:38:26;;;;;;;7.07;4.10;;;;;;;22.00;53.10;101026.28;5066886;28;20039;-49
2022/05/11 06:40:51;;;;;;;7.28;4.22;;;;;;;22.00;52.99;101023.66;5068089;28;20033;-54
2022/05/11 06:43:18;;;;;;;6.93;4.43;;;;;;;21.99;52.76;101022.00;5067105;28;20415;-54
2022/05/11 06:45:43;;;;;;;7.28;4.32;;;;;;;21.99;52.84;101019.34;5048936;28;20466;-52
2022/05/11 06:48:09;;;;;;;6.07;3.70;;;;;;;21.98;53.21;101025.69;5048931;28;20040;-54
2022/05/11 06:50:34;;;;;;;11.50;5.60;;;;;;;21.98;53.21;101025.69;5068488;28;20068;-51
2022/05/11 06:53:11;;;;;;;13.82;8.70;;;;;;;22.00;53.93;101022.81;5067632;28;20032;-56
2022/05/11 07:01:07;;;;;;;7.18;5.53;;;;;;;21.99;53.68;101027.31;5067052;28;20093;-56
2022/05/11 07:03:32;;;;;;;6.10;5.45;;;;;;;21.98;53.72;101031.00;5066924;28;20032;-49
2022/05/11 07:05:58;;;;;;;7.93;5.70;;;;;;;21.98;53.79;101024.88;5067299;28;20027;-57
2022/05/11 07:08:23;;;;;;;8.05;5.38;;;;;;;21.97;53.46;101021.41;5066007;28;20063;-61
2022/05/11 07:13:33;;;;;;;7.22;5.55;;;;;;;21.95;53.60;101022.63;5067038;28;20415;-57
2022/05/11 07:15:59;;;;;;;5.13;4.72;;;;;;;21.95;53.88;101019.97;5066669;28;20036;-55
2022/05/11 07:18:24;;;;;;;13.68;5.75;;;;;;;21.93;53.85;101022.81;5065236;28;20032;-48
2022/05/11 07:20:51;;;;;;;8.80;4.78;;;;;;;21.94;53.92;101021.00;5066692;28;20079;-58
2022/05/11 07:23:17;;;;;;;6.45;4.78;;;;;;;21.94;54.18;101019.16;5064633;28;20040;-52
2022/05/11 07:25:44;;;;;;;9.15;4.93;;;;;;;21.94;54.00;101016.50;5067331;28;20387;-58
2022/05/11 07:28:10;;;;;;;8.05;4.95;;;;;;;21.94;53.96;101019.16;5048293;28;20041;-56
2022/05/11 07:30:38;;;;;;;9.38;5.07;;;;;;;21.94;54.10;101013.84;5065887;28;20082;-53
2022/05/11 07:33:03;;;;;;;7.38;4.72;;;;;;;21.95;54.06;101017.31;5065819;28;20490;-49
2022/05/11 07:35:30;;;;;;;9.40;4.55;;;;;;;21.94;53.95;101013.84;5067248;28;20028;-50
2022/05/11 07:37:57;;;;;;;6.32;4.47;;;;;;;21.94;54.06;101008.53;5065380;28;20025;-55
2022/05/11 07:40:23;;;;;;;7.85;4.93;;;;;;;21.96;53.96;101006.50;5046050;28;20499;-54
2022/05/11 07:42:49;;;;;;;7.57;4.13;;;;;;;21.95;54.01;101015.47;5054769;28;20333;-55
2022/05/11 07:45:17;;;;;;;7.82;4.72;;;;;;;21.96;54.50;101013.66;5066294;28;20036;-55
2022/05/11 07:47:43;;;;;;;9.88;4.75;;;;;;;21.95;54.11;101020.78;5065365;28;20039;-55
2022/05/11 07:50:15;;;;;;;6.22;4.90;;;;;;;21.97;53.99;101018.75;5064025;28;20060;-56
2022/05/11 07:52:41;;;;;;;5.53;4.97;;;;;;;21.98;54.22;101016.91;5062249;28;20612;-56
2022/05/11 07:55:08;;;;;;;6.13;4.38;;;;;;;21.99;53.99;101021.19;5062930;28;20108;-57
2022/05/11 08:00:18;;;;;;;5.80;4.68;;;;;;;21.98;53.91;101017.72;5064608;28;20039;-58
2022/05/11 08:02:43;;;;;;;8.15;4.32;;;;;;;21.99;54.22;101014.06;5065002;28;20024;-56
2022/05/11 08:05:12;;;;;;;10.35;4.53;;;;;;;22.00;53.74;101020.16;5064129;28;20040;-54
2022/05/11 08:07:50;;;;;;;5.30;4.43;;;;;;;21.98;54.32;101017.72;5065656;28;20028;-57
2022/05/11 08:10:20;;;;;;;4.97;4.03;;;;;;;21.99;54.31;101014.06;5066672;28;20215;-56
2022/05/11 08:12:46;;;;;;;7.00;4.88;;;;;;;22.00;53.96;101015.69;5064260;28;20098;-57
2022/05/11 08:15:13;;;;;;;7.07;4.38;;;;;;;21.99;54.08;101014.06;5066457;28;20036;-55
2022/05/11 08:17:42;;;;;;;4.88;4.05;;;;;;;22.00;53.82;101013.03;5064141;28;20028;-56
2022/05/11 08:20:14;;;;;;;4.85;3.60;;;;;;;22.01;53.81;101012.03;5063947;28;20055;-57
2022/05/11 08:22:45;;;;;;;6.47;4.57;;;;;;;22.00;54.04;101013.03;5062205;28;20031;-58
2022/05/11 08:25:13;;;;;;;6.72;4.97;;;;;;;22.01;53.76;101019.16;5054977;28;20049;-55
2022/05/11 08:27:38;;;;;;;6.80;3.88;;;;;;;22.02;54.23;101020.81;5044029;28;20033;-57
2022/05/11 08:35:34;;;;;;;9.07;4.78;;;;;;;22.08;53.75;101015.50;5062795;28;20143;-54
2022/05/11 08:38:00;;;;;;;6.60;3.72;;;;;;;22.10;53.90;101020.59;5065442;28;20112;-57
2022/05/11 08:40:34;;;;;;;6.32;4.13;;;;;;;22.11;53.74;101011.63;5066446;28;20020;-56
2022/05/11 08:43:02;;;;;;;8.15;4.40;;;;;;;22.13;53.54;101013.03;5066368;28;20041;-57
2022/05/11 08:45:39;;;;;;;6.57;4.80;;;;;;;22.14;53.38;101013.88;5064756;28;20126;-56
2022/05/11 08:48:10;;;;;;;6.60;4.22;;;;;;;22.14;53.35;101009.38;5065420;28;20105;-57
2022/05/11 08:50:38;;;;;;;4.55;4.15;;;;;;;22.16;53.73;101006.50;5045523;28;20052;-56
2022/05/11 08:53:07;;;;;;;4.82;3.80;;;;;;;22.16;53.54;101003.84;5066397;28;20028;-57
2022/05/11 08:55:47;;;;;;;5.10;4.20;;;;;;;22.14;53.34;101006.72;5065288;28;20070;-57
2022/05/11 08:58:17;;;;;;;7.72;4.22;;;;;;;22.14;53.34;101008.56;5064751;28;20028;-57
2022/05/11 09:00:44;;;;;;;4.97;4.03;;;;;;;22.14;53.15;101008.56;5064655;28;20123;-58
2022/05/11 09:03:41;;;;;;;5.15;3.65;;;;;;;22.13;53.25;101006.94;5065922;28;20283;-57
2022/05/11 09:06:27;;;;;;;7.32;3.78;;;;;;;22.12;53.20;101003.47;5046098;28;20041;-56
2022/05/11 09:08:58;;;;;;;6.40;4.00;;;;;;;22.12;53.45;101006.09;5065198;28;20028;-56
2022/05/11 09:11:32;;;;;;;5.70;3.63;;;;;;;22.12;53.43;100998.16;5065487;28;20173;-56
2022/05/11 09:13:59;;;;;;;5.05;3.80;;;;;;;22.12;53.36;101000.81;5066315;28;20372;-56
2022/05/11 09:16:26;;;;;;;5.57;3.78;;;;;;;22.12;53.15;101000.81;5066022;28;20024;-56
2022/05/11 09:18:52;;;;;;;4.38;3.13;;;;;;;22.12;53.35;101000.81;5064450;28;20036;-56
2022/05/11 09:21:20;;;;;;;5.90;3.40;;;;;;;22.12;53.23;101003.47;5064014;28;20051;-57
2022/05/11 09:24:08;;;;;;;6.80;3.50;;;;;;;22.11;52.76;101003.66;5064382;28;20028;-56
2022/05/11 09:26:39;;;;;;;5.22;4.10;;;;;;;22.12;52.75;101006.09;5045315;28;20064;-57
2022/05/11 09:29:16;;;;;;;5.63;4.05;;;;;;;22.11;52.66;101006.31;5057150;28;20047;-56
2022/05/11 09:31:42;;;;;;;5.13;2.90;;;;;;;22.13;52.68;101001.63;5063229;28;20116;-56
2022/05/11 09:34:08;;;;;;;5.35;3.42;;;;;;;22.14;52.81;101008.56;5065527;28;20115;-56
2022/05/11 09:36:42;;;;;;;6.40;3.67;;;;;;;22.14;52.46;100997.94;5069255;28;20115;-56
2022/05/11 09:39:14;;;;;;;8.50;3.40;;;;;;;22.14;52.58;100997.94;5067475;28;20029;-56
2022/05/11 09:41:49;;;;;;;6.35;3.45;;;;;;;22.14;52.30;100997.94;5067619;28;20394;-57
2022/05/11 09:44:26;;;;;;;9.13;3.63;;;;;;;22.16;51.87;101006.50;5069250;28;20037;-56
2022/05/11 09:46:53;;;;;;;5.68;3.53;;;;;;;22.21;52.15;101003.25;5066424;28;20025;-56
2022/05/11 09:49:18;;;;;;;4.78;2.80;;;;;;;22.23;52.08;101001.16;5068935;28;20040;-56
2022/05/11 09:51:47;;;;;;;5.25;3.22;;;;;;;22.24;51.75;101010.75;5068049;28;20033;-56
2022/05/11 09:54:18;;;;;;;5.13;3.40;;;;;;;22.26;51.49;100998.09;5068319;28;20070;-56
2022/05/11 09:56:58;;;;;;;10.05;3.40;;;;;;;22.26;51.71;101006.88;5067930;28;20032;-57
2022/05/11 09:59:37;;;;;;;9.02;3.40;;;;;;;22.24;51.46;101000.13;5068000;28;20518;-56
2022/05/11 10:02:32;;;;;;;7.97;2.78;;;;;;;22.24;51.35;101005.44;5046724;28;20044;-56
2022/05/11 10:05:24;;;;;;;6.75;2.95;;;;;;;22.22;51.31;101004.84;5048689;28;20040;-58
2022/05/11 10:07:59;;;;;;;4.93;2.80;;;;;;;22.21;51.00;100997.94;5038887;28;20135;-58
2022/05/11 10:10:27;;;;;;;10.00;3.17;;;;;;;22.21;51.22;101001.41;5065368;28;20082;-56
2022/05/11 10:12:58;;;;;;;7.93;3.35;;;;;;;22.20;51.20;101002.44;5067766;28;20056;-56
2022/05/11 10:21:56;;;;;;;5.70;3.13;;;;;;;22.16;50.75;100991.41;5067348;28;20197;-56
2022/05/11 10:24:43;;;;;;;4.95;3.08;;;;;;;22.14;50.48;100998.75;5003471;28;20057;-56
2022/05/11 10:27:20;;;;;;;6.03;2.90;;;;;;;22.18;50.66;100993.84;5004999;28;20578;-56
2022/05/11 10:30:02;;;;;;;6.15;2.85;;;;;;;22.16;50.16;101004.69;5004766;28;20433;-56
2022/05/11 10:32:51;;;;;;;12.60;2.90;;;;;;;22.17;50.36;100998.34;5004835;28;20049;-56
2022/05/11 10:35:26;;;;;;;8.68;3.10;;;;;;;22.21;50.32;101003.25;5004741;28;20062;-56
2022/05/11 10:38:28;;;;;;;4.60;2.63;;;;;;;22.18;49.92;100993.84;5004491;28;20595;-56
2022/05/11 10:41:03;;;;;;;6.63;2.80;;;;;;;22.21;50.05;100993.44;4969397;28;20069;-55
2022/05/11 10:43:50;;;;;;;4.45;3.10;;;;;;;22.20;49.45;100991.81;5004146;28;20128;-58
2022/05/11 10:46:27;;;;;;;5.75;2.70;;;;;;;22.23;49.39;100988.72;5002680;28;20037;-56
2022/05/11 10:49:12;;;;;;;8.27;3.30;;;;;;;22.25;49.33;100993.81;5005374;28;20309;-55
2022/05/11 10:52:03;;;;;;;6.57;2.83;;;;;;;22.27;49.08;100986.47;4988145;28;20136;-53
2022/05/11 10:54:43;;;;;;;5.50;2.80;;;;;;;22.31;48.93;100977.88;4994713;28;20064;-55
2022/05/11 10:57:30;;;;;;;3.58;2.33;;;;;;;22.33;48.72;100980.31;5004348;28;20703;-55
2022/05/11 11:00:08;;;;;;;5.32;2.25;;;;;;;22.29;48.62;100979.91;5067269;28;20071;-56
2022/05/11 11:02:52;;;;;;;7.63;2.67;;;;;;;22.29;48.38;100977.25;5047730;28;20033;-56
2022/05/11 11:05:29;;;;;;;5.35;2.70;;;;;;;22.35;48.76;100972.97;5063318;28;20029;-55
2022/05/11 11:08:15;;;;;;;5.07;1.88;;;;;;;22.33;48.32;100969.69;5066710;28;20048;-56
2022/05/11 11:10:50;;;;;;;4.63;2.40;;;;;;;22.33;48.89;100969.69;5064333;28;20066;-57
2022/05/11 11:14:00;;;;;;;5.95;2.72;;;;;;;22.28;48.92;100972.16;5055565;28;20143;-55
2022/05/11 11:16:32;;;;;;;7.90;2.35;;;;;;;22.28;49.07;100972.16;5037566;28;20407;-57
2022/05/11 11:18:59;;;;;;;4.63;2.28;;;;;;;22.28;48.96;100964.19;5066218;28;20035;-56
2022/05/11 11:21:26;;;;;;;7.88;2.35;;;;;;;22.29;48.79;100968.47;5064027;28;20032;-55
2022/05/11 11:24:11;;;;;;;4.85;2.17;;;;;;;22.27;49.04;100975.84;5065262;28;20729;-55
2022/05/11 11:26:50;;;;;;;7.35;2.83;;;;;;;22.29;48.80;100963.19;5046588;28;20125;-54
2022/05/11 11:29:28;;;;;;;5.60;2.50;;;;;;;22.32;48.79;100962.75;5060148;28;20067;-55
2022/05/11 11:32:05;;;;;;;4.25;2.38;;;;;;;22.29;48.93;100956.03;5042831;28;20372;-54
2022/05/11 11:34:39;;;;;;;4.75;2.80;;;;;;;22.31;49.42;100955.81;5065029;28;20036;-55
2022/05/11 11:37:30;;;;;;;5.50;3.20;;;;;;;22.27;49.14;100955.41;5063950;28;20029;-56
2022/05/11 11:40:14;;;;;;;6.35;2.97;;;;;;;22.30;49.20;100944.38;5049437;28;20037;-60
2022/05/11 11:42:42;;;;;;;8.93;2.80;;;;;;;22.33;49.34;100943.16;5063071;28;20036;-57
2022/05/11 11:45:31;;;;;;;8.07;2.60;;;;;;;22.34;49.23;100944.78;5063934;28;20045;-53
2022/05/11 11:48:03;;;;;;;9.10;3.70;;;;;;;22.42;50.55;100941.91;5013792;28;20052;-49
2022/05/11 11:51:00;;;;;;;8.65;3.92;;;;;;;22.55;52.51;100947.16;5035417;28;20032;-57
2022/05/11 11:53:56;;;;;;;9.05;4.00;;;;;;;22.68;53.51;100952.41;5037959;28;20059;-54
2022/05/11 11:56:25;;;;;;;9.52;4.35;;;;;;;22.79;54.12;100948.28;5057749;28;20041;-51
2022/05/11 11:59:07;;;;;;;8.32;4.82;;;;;;;23.06;57.48;100943.63;5061128;28;20035;-48
2022/05/11 12:01:35;;;;;;;13.95;6.30;;;;;;;;;;5059181;28;20365;-56
2022/05/11 12:04:05;;;;;;;10.30;6.82;;;;;;;23.30;60.35;100937.50;5063599;28;20029;-48
2022/05/11 12:15:02;;;;;;;6.43;2.83;;;;;;;23.17;58.57;100934.94;5066539;28;20117;-56
2022/05/11 12:17:30;;;;;;;6.93;3.22;;;;;;;23.15;57.87;100932.53;5064327;28;20426;-54
2022/05/11 12:19:59;;;;;;;4.82;2.28;;;;;;;23.13;57.01;100931.94;5058135;28;20042;-50
2022/05/11 12:22:25;;;;;;;8.82;2.80;;;;;;;23.11;56.62;100931.31;5059706;28;20086;-50